Time;durP1;ratioP1;P1;durP2;ratioP2;P2;SDS_P1;SDS_P2;PMS_P1;PMS_P2;Temp;Humidity;BMP_temperature;BMP_pressure;BME280_temperature;BME280_humidity;BME280_pressure;Samples;Min_cycle;Max_cycle;Signal;HPM_P1;HPM_P2
2023/02/13 00:00:46;;;;;;;26.77;15.20;;;7.70;99.90;;;;;;5006955;28;20035;-76
2023/02/13 00:03:13;;;;;;;26.15;15.13;;;7.80;99.90;;;;;;4962916;28;20022;-73
2023/02/13 00:05:38;;;;;;;27.80;14.95;;;7.80;99.90;;;;;;4960063;28;20504;-75
2023/02/13 00:08:04;;;;;;;25.88;14.60;;;7.80;99.90;;;;;;4978116;28;20030;-72
2023/02/13 00:10:30;;;;;;;29.25;16.00;;;7.80;99.90;;;;;;4997068;28;20026;-75
2023/02/13 00:12:56;;;;;;;27.17;15.73;;;7.80;99.90;;;;;;4978433;28;20512;-74
2023/02/13 00:15:22;;;;;;;25.25;14.45;;;7.80;99.90;;;;;;4991812;28;20078;-74
2023/02/13 00:17:47;;;;;;;25.42;14.77;;;7.80;99.90;;;;;;4969597;28;20395;-74
2023/02/13 00:20:13;;;;;;;24.52;14.65;;;7.70;99.90;;;;;;4980920;28;20034;-74
2023/02/13 00:22:39;;;;;;;24.45;14.95;;;7.70;99.90;;;;;;4980899;28;20109;-73
2023/02/13 00:25:06;;;;;;;25.63;15.77;;;7.70;99.90;;;;;;4977466;28;20046;-75
2023/02/13 00:27:32;;;;;;;28.60;16.45;;;7.70;99.90;;;;;;4996485;28;20022;-75
2023/02/13 00:30:01;;;;;;;25.90;15.85;;;7.70;99.90;;;;;;4982377;28;20445;-75
2023/02/13 00:32:26;;;;;;;24.35;15.52;;;7.70;99.90;;;;;;4979908;28;20121;-74
2023/02/13 00:34:52;;;;;;;26.65;15.52;;;7.70;99.90;;;;;;4979344;28;20549;-74
2023/02/13 00:37:18;;;;;;;31.95;16.10;;;7.70;99.90;;;;;;4979667;28;20526;-75
2023/02/13 00:39:43;;;;;;;27.50;15.90;;;7.70;99.90;;;;;;4976161;28;20061;-75
2023/02/13 00:42:09;;;;;;;29.35;16.25;;;7.70;99.90;;;;;;4956121;28;20034;-75
2023/02/13 00:44:35;;;;;;;27.13;15.70;;;7.70;99.90;;;;;;4978979;28;20027;-74
2023/02/13 00:47:01;;;;;;;25.67;14.80;;;7.70;99.90;;;;;;4992329;28;20018;-74
2023/02/13 00:49:26;;;;;;;26.63;15.65;;;7.70;99.90;;;;;;4995233;28;20033;-74
2023/02/13 00:51:52;;;;;;;27.42;15.40;;;7.70;99.90;;;;;;4995159;28;20030;-75
2023/02/13 00:54:18;;;;;;;29.08;15.63;;;7.70;99.90;;;;;;4979129;28;20105;-74
2023/02/13 00:56:44;;;;;;;23.38;15.25;;;7.70;99.90;;;;;;4995164;28;20477;-74
2023/02/13 00:59:10;;;;;;;24.73;15.43;;;7.60;99.90;;;;;;4981721;28;20029;-75
2023/02/13 01:01:35;;;;;;;27.98;15.88;;;7.60;99.90;;;;;;4980169;28;20397;-75
2023/02/13 01:04:01;;;;;;;27.08;15.18;;;7.70;99.90;;;;;;4977915;28;20042;-74
2023/02/13 01:06:27;;;;;;;23.77;14.60;;;7.70;99.90;;;;;;4979431;28;20073;-74
2023/02/13 01:08:53;;;;;;;27.77;15.65;;;7.60;99.90;;;;;;4977647;28;20037;-74
2023/02/13 01:11:18;;;;;;;27.10;14.63;;;7.60;99.90;;;;;;4976468;28;20046;-74
2023/02/13 01:13:45;;;;;;;30.60;15.30;;;7.60;99.90;;;;;;4975995;28;20030;-74
2023/02/13 01:16:10;;;;;;;28.13;16.98;;;7.60;99.90;;;;;;5000187;28;20545;-74
2023/02/13 01:18:37;;;;;;;27.65;16.08;;;7.70;99.90;;;;;;4993912;28;20069;-74
2023/02/13 01:21:06;;;;;;;27.02;16.20;;;7.60;99.90;;;;;;4963503;28;20120;-75
2023/02/13 01:23:34;;;;;;;31.40;16.95;;;7.60;99.90;;;;;;4991492;28;20041;-74
2023/02/13 01:26:02;;;;;;;27.98;15.45;;;7.70;99.90;;;;;;4979796;28;20030;-74
2023/02/13 01:28:27;;;;;;;25.73;15.82;;;7.70;99.90;;;;;;4995757;28;20032;-75
2023/02/13 01:30:57;;;;;;;31.17;15.63;;;7.70;99.90;;;;;;4981025;28;20038;-74
2023/02/13 01:33:25;;;;;;;27.75;15.38;;;7.70;99.90;;;;;;5002909;28;20030;-74
2023/02/13 01:35:52;;;;;;;26.35;15.45;;;7.70;99.90;;;;;;4985699;28;20592;-74
2023/02/13 01:38:17;;;;;;;25.58;14.60;;;7.70;99.90;;;;;;4994522;28;20041;-75
2023/02/13 01:40:53;;;;;;;24.92;15.23;;;7.60;99.90;;;;;;4994001;28;20030;-74
2023/02/13 01:43:23;;;;;;;26.05;14.35;;;7.60;99.90;;;;;;4992001;28;20109;-75
2023/02/13 01:45:53;;;;;;;25.58;15.20;;;7.60;99.90;;;;;;4997430;28;20026;-74
2023/02/13 01:48:22;;;;;;;28.90;14.88;;;7.60;99.90;;;;;;4998797;28;20826;-74
2023/02/13 01:51:02;;;;;;;29.92;15.40;;;7.60;99.90;;;;;;4996589;28;20494;-74
2023/02/13 01:53:48;;;;;;;25.63;15.48;;;7.60;99.90;;;;;;4979776;28;20061;-74
2023/02/13 01:56:26;;;;;;;24.77;14.88;;;7.60;99.90;;;;;;4999200;28;20038;-73
2023/02/13 01:58:57;;;;;;;23.92;14.30;;;7.50;99.90;;;;;;4977554;28;20390;-74
2023/02/13 02:01:23;;;;;;;;;;;7.50;99.90;;;;;;4979478;28;20030;-75
2023/02/13 02:03:56;;;;;;;27.90;14.85;;;7.50;99.90;;;;;;4974425;28;20418;-75
2023/02/13 02:06:35;;;;;;;25.85;15.05;;;7.50;99.90;;;;;;4958283;28;20036;-75
2023/02/13 02:09:13;;;;;;;31.52;15.35;;;7.50;99.90;;;;;;4992949;28;20034;-75
2023/02/13 02:12:02;;;;;;;25.05;14.75;;;7.50;99.90;;;;;;4991597;28;20034;-74
2023/02/13 02:14:28;;;;;;;23.45;14.43;;;7.50;99.90;;;;;;5001580;28;20037;-74
2023/02/13 02:16:55;;;;;;;23.98;14.38;;;7.50;99.90;;;;;;4978269;28;20022;-75
2023/02/13 02:19:52;;;;;;;25.15;13.85;;;7.40;99.90;;;;;;4991642;28;20048;-74
2023/02/13 02:22:42;;;;;;;25.55;14.70;;;7.50;99.90;;;;;;4976652;28;20034;-75
2023/02/13 02:25:32;;;;;;;24.15;14.82;;;7.50;99.90;;;;;;4996958;28;20086;-74
2023/02/13 02:28:27;;;;;;;25.08;14.30;;;7.50;99.90;;;;;;4989544;28;20036;-75
2023/02/13 02:31:30;;;;;;;24.67;14.02;;;7.50;99.90;;;;;;4985713;28;20506;-74
2023/02/13 02:34:27;;;;;;;22.75;12.95;;;7.50;99.90;;;;;;4997678;28;20695;-75
2023/02/13 02:37:24;;;;;;;22.10;13.27;;;7.50;99.90;;;;;;4977438;28;20088;-74
2023/02/13 02:40:11;;;;;;;20.33;12.90;;;7.50;99.90;;;;;;4994366;28;20030;-75
2023/02/13 02:42:46;;;;;;;23.52;13.15;;;7.50;99.90;;;;;;4993510;28;20047;-75
2023/02/13 02:45:24;;;;;;;23.10;13.25;;;7.50;99.90;;;;;;4994866;28;20030;-75
2023/02/13 02:51:00;;;;;;;21.98;13.20;;;7.50;99.90;;;;;;4993598;28;20023;-74
2023/02/13 02:53:39;;;;;;;24.70;13.63;;;7.50;99.90;;;;;;4977672;28;20034;-75
2023/02/13 02:56:30;;;;;;;23.60;13.02;;;7.50;99.90;;;;;;4985569;28;20037;-73
2023/02/13 03:07:32;;;;;;;20.08;11.82;;;7.50;99.90;;;;;;4994720;28;20037;-74
2023/02/13 03:13:31;;;;;;;20.40;11.07;;;7.40;99.90;;;;;;4933767;29;20038;-75
2023/02/13 03:24:48;;;;;;;19.42;11.07;;;7.30;99.90;;;;;;4993527;28;20417;-75
2023/02/13 03:30:46;;;;;;;19.55;12.20;;;7.30;99.90;;;;;;4989613;28;20032;-74
2023/02/13 03:33:12;;;;;;;18.52;12.00;;;7.40;99.90;;;;;;4979200;28;21228;-74
2023/02/13 03:38:58;;;;;;;17.75;11.05;;;7.40;99.90;;;;;;4989765;28;20030;-74
2023/02/13 03:41:53;;;;;;;19.17;11.18;;;7.40;99.90;;;;;;4993268;28;20057;-72
2023/02/13 03:44:34;;;;;;;22.58;12.07;;;7.30;99.90;;;;;;4979693;28;20045;-75
2023/02/13 03:47:04;;;;;;;20.60;11.75;;;7.30;99.90;;;;;;4969685;28;20080;-75
2023/02/13 03:52:29;;;;;;;19.38;11.45;;;7.20;99.90;;;;;;4996385;28;20067;-74
2023/02/13 04:00:43;;;;;;;19.80;11.57;;;7.20;99.90;;;;;;4995755;28;20026;-75
2023/02/13 04:03:14;;;;;;;20.45;11.88;;;7.20;99.90;;;;;;4984240;28;20040;-74
2023/02/13 04:05:48;;;;;;;;;;;7.20;99.90;;;;;;4996892;28;20478;-75
2023/02/13 04:08:14;;;;;;;16.95;10.43;;;7.20;99.90;;;;;;4986793;28;20377;-74
2023/02/13 04:11:05;;;;;;;18.20;10.60;;;7.20;99.90;;;;;;4997388;28;20030;-75
2023/02/13 04:13:41;;;;;;;18.42;10.27;;;7.30;99.90;;;;;;4962607;28;20061;-74
2023/02/13 04:16:19;;;;;;;17.63;11.27;;;7.30;99.90;;;;;;4993225;28;20025;-72
2023/02/13 04:18:47;;;;;;;19.10;10.85;;;7.20;99.90;;;;;;4973963;28;20041;-75
2023/02/13 04:21:12;;;;;;;17.23;10.27;;;7.20;99.90;;;;;;4994750;28;20036;-75
2023/02/13 04:23:38;;;;;;;19.10;11.82;;;7.20;99.90;;;;;;4979105;28;20034;-74
2023/02/13 04:26:15;;;;;;;18.67;11.05;;;7.20;99.90;;;;;;4979781;28;20026;-75
2023/02/13 04:28:40;;;;;;;16.42;10.10;;;7.30;99.90;;;;;;4995540;28;20037;-74
2023/02/13 04:31:06;;;;;;;17.27;11.13;;;7.30;99.90;;;;;;4998353;28;20034;-74
2023/02/13 04:33:32;;;;;;;18.20;11.10;;;7.30;99.90;;;;;;4978828;28;20041;-74
2023/02/13 04:35:57;;;;;;;17.15;10.70;;;7.30;99.90;;;;;;4980544;28;20608;-74
2023/02/13 04:38:23;;;;;;;19.85;11.40;;;7.30;99.90;;;;;;4995661;28;20073;-74
2023/02/13 04:40:49;;;;;;;17.38;11.10;;;7.30;99.90;;;;;;4995702;28;20037;-74
2023/02/13 04:43:15;;;;;;;23.77;11.63;;;7.30;99.90;;;;;;4962443;28;20055;-74
2023/02/13 04:45:41;;;;;;;18.65;10.55;;;7.30;99.90;;;;;;4996997;28;20104;-75
2023/02/13 04:48:06;;;;;;;22.77;11.75;;;7.20;99.90;;;;;;4993303;28;20030;-74
2023/02/13 04:50:32;;;;;;;19.10;10.95;;;7.30;99.90;;;;;;4974456;28;20029;-75
2023/02/13 04:52:58;;;;;;;19.63;10.60;;;7.30;99.90;;;;;;4998139;28;20045;-74
2023/02/13 04:55:25;;;;;;;17.55;10.20;;;7.30;99.90;;;;;;4979012;28;20121;-74
2023/02/13 04:57:52;;;;;;;18.77;10.60;;;7.30;99.90;;;;;;4977122;28;20148;-74
2023/02/13 05:00:20;;;;;;;18.38;10.98;;;7.30;99.90;;;;;;4976915;28;20609;-75
2023/02/13 05:02:45;;;;;;;17.55;10.07;;;7.30;99.90;;;;;;4962781;28;20078;-74
2023/02/13 05:05:11;;;;;;;21.38;10.57;;;7.30;99.90;;;;;;4999559;28;20117;-75
2023/02/13 05:07:37;;;;;;;19.33;11.18;;;7.30;99.90;;;;;;4975810;28;20030;-75
2023/02/13 05:10:03;;;;;;;21.90;11.63;;;7.30;99.90;;;;;;4995889;28;20038;-74
2023/02/13 05:12:29;;;;;;;19.05;10.60;;;7.30;99.90;;;;;;4998987;28;20053;-74
2023/02/13 05:14:55;;;;;;;20.67;10.60;;;7.20;99.90;;;;;;4980711;28;20145;-75
2023/02/13 05:17:21;;;;;;;19.70;11.40;;;7.20;99.90;;;;;;4964846;28;20030;-74
2023/02/13 05:19:47;;;;;;;18.73;11.02;;;7.30;99.90;;;;;;4991437;28;20405;-74
2023/02/13 05:24:56;;;;;;;19.75;10.65;;;7.30;99.90;;;;;;5002680;28;20041;-74
2023/02/13 05:27:22;;;;;;;19.33;11.60;;;7.30;99.90;;;;;;4984339;28;20022;-74
2023/02/13 05:29:48;;;;;;;17.60;10.48;;;7.30;99.90;;;;;;4979854;28;20026;-74
2023/02/13 05:32:14;;;;;;;16.38;10.40;;;7.20;99.90;;;;;;4992389;28;20021;-74
2023/02/13 05:34:39;;;;;;;19.42;10.90;;;7.20;99.90;;;;;;4978596;28;20045;-74
2023/02/13 05:37:05;;;;;;;17.00;10.50;;;7.30;99.90;;;;;;4975265;28;20038;-74
2023/02/13 05:39:31;;;;;;;23.05;11.50;;;7.30;99.90;;;;;;4961060;28;20030;-75
2023/02/13 05:41:56;;;;;;;21.08;11.30;;;7.30;99.90;;;;;;4979148;28;20505;-74
2023/02/13 05:44:22;;;;;;;20.17;10.88;;;7.30;99.90;;;;;;4995329;28;20097;-74
2023/02/13 05:46:48;;;;;;;20.52;11.55;;;7.30;99.90;;;;;;5006470;28;20058;-73
2023/02/13 05:49:14;;;;;;;17.48;10.73;;;7.30;99.90;;;;;;4982565;28;20037;-73
2023/02/13 05:51:41;;;;;;;20.02;11.27;;;7.30;99.90;;;;;;4993371;28;20049;-74
2023/02/13 05:54:07;;;;;;;21.63;11.43;;;7.30;99.90;;;;;;4994177;28;20084;-74
2023/02/13 05:56:33;;;;;;;21.25;12.05;;;7.30;99.90;;;;;;4981574;28;20029;-74
2023/02/13 05:58:59;;;;;;;19.73;11.52;;;7.30;99.90;;;;;;4975345;28;20497;-74
2023/02/13 06:01:25;;;;;;;19.15;11.07;;;7.30;99.90;;;;;;4974083;28;20034;-75
2023/02/13 06:03:51;;;;;;;17.55;10.40;;;7.30;99.90;;;;;;4993436;28;20038;-75
2023/02/13 06:06:17;;;;;;;19.73;11.48;;;7.30;99.90;;;;;;4959646;28;20026;-74
2023/02/13 06:08:43;;;;;;;20.00;11.80;;;7.30;99.90;;;;;;4988001;28;20030;-73
2023/02/13 06:11:10;;;;;;;21.77;11.00;;;7.30;99.90;;;;;;4987452;28;20026;-74
2023/02/13 06:13:39;;;;;;;17.15;10.77;;;7.30;99.90;;;;;;4989385;28;20027;-72
2023/02/13 06:16:11;;;;;;;19.98;11.40;;;7.30;99.90;;;;;;4978522;28;20128;-73
2023/02/13 06:18:39;;;;;;;19.77;11.20;;;7.30;99.90;;;;;;4992366;28;20121;-73
2023/02/13 06:21:06;;;;;;;18.88;10.95;;;7.30;99.90;;;;;;4988441;28;20049;-72
2023/02/13 06:23:32;;;;;;;19.88;11.20;;;7.30;99.90;;;;;;4973264;28;20079;-73
2023/02/13 06:26:06;;;;;;;18.00;11.60;;;7.30;99.90;;;;;;4976617;28;20354;-73
2023/02/13 06:28:32;;;;;;;22.52;12.52;;;7.30;99.90;;;;;;4964786;28;20027;-73
2023/02/13 06:30:57;;;;;;;19.25;12.05;;;7.30;99.90;;;;;;4960056;28;20035;-73
2023/02/13 06:33:24;;;;;;;21.42;12.45;;;7.30;99.90;;;;;;4991613;28;20080;-74
2023/02/13 06:35:50;;;;;;;21.70;12.20;;;7.30;99.90;;;;;;4986569;28;20029;-74
2023/02/13 06:38:17;;;;;;;20.75;11.38;;;7.30;99.90;;;;;;4988673;28;20030;-74
2023/02/13 06:40:45;;;;;;;18.38;10.98;;;7.20;99.90;;;;;;4991540;28;20050;-74
2023/02/13 06:43:11;;;;;;;23.42;12.80;;;7.30;99.90;;;;;;4959170;28;20026;-73
2023/02/13 06:45:37;;;;;;;19.95;11.95;;;7.30;99.90;;;;;;4987281;28;20878;-74
2023/02/13 06:48:03;;;;;;;21.80;12.68;;;7.20;99.90;;;;;;4989502;28;20078;-72
2023/02/13 06:50:28;;;;;;;20.00;12.32;;;7.20;99.90;;;;;;4991059;28;20138;-75
2023/02/13 06:52:54;;;;;;;21.90;12.65;;;7.20;99.90;;;;;;4964817;28;20098;-75
2023/02/13 06:55:20;;;;;;;21.10;12.00;;;7.20;99.90;;;;;;4956599;28;20037;-75
2023/02/13 06:57:46;;;;;;;20.67;13.07;;;7.20;99.90;;;;;;4977170;28;20033;-75
2023/02/13 07:00:13;;;;;;;23.33;13.10;;;7.20;99.90;;;;;;4973774;28;20113;-74
2023/02/13 07:02:44;;;;;;;20.30;12.52;;;7.20;99.90;;;;;;4962219;28;20034;-74
2023/02/13 07:05:10;;;;;;;20.13;12.38;;;7.20;99.90;;;;;;4972564;28;20022;-75
2023/02/13 07:07:38;;;;;;;24.00;13.05;;;7.20;99.90;;;;;;4979065;28;20448;-76
2023/02/13 07:10:08;;;;;;;27.08;13.18;;;7.10;99.90;;;;;;4978342;28;20054;-74
2023/02/13 07:12:35;;;;;;;21.23;12.73;;;7.20;99.90;;;;;;4977115;28;20030;-73
2023/02/13 07:15:02;;;;;;;23.05;13.18;;;7.10;99.90;;;;;;4957746;28;20061;-75
2023/02/13 07:17:28;;;;;;;23.73;13.38;;;7.20;99.90;;;;;;4998417;28;20125;-74
2023/02/13 07:19:54;;;;;;;27.17;14.95;;;7.20;99.90;;;;;;4976538;28;20041;-74
2023/02/13 07:22:19;;;;;;;23.48;13.43;;;7.10;99.90;;;;;;4979927;28;20030;-75
2023/02/13 07:24:45;;;;;;;25.83;14.20;;;7.10;99.90;;;;;;4978742;28;20062;-75
2023/02/13 07:27:11;;;;;;;26.30;13.05;;;7.10;99.90;;;;;;4993858;28;21621;-74
2023/02/13 07:29:39;;;;;;;24.67;13.38;;;7.10;99.90;;;;;;4976255;28;20037;-72
2023/02/13 07:32:05;;;;;;;27.05;15.05;;;7.20;99.90;;;;;;4996361;28;20034;-74
2023/02/13 07:34:32;;;;;;;25.08;14.55;;;7.20;99.90;;;;;;4993389;28;20105;-75
2023/02/13 07:37:01;;;;;;;26.55;14.32;;;7.20;99.90;;;;;;4982913;28;20038;-74
2023/02/13 07:39:27;;;;;;;25.33;14.75;;;7.20;99.90;;;;;;4982014;28;20113;-75
2023/02/13 07:41:52;;;;;;;26.80;14.77;;;7.20;99.90;;;;;;4968261;28;20091;-75
2023/02/13 07:44:18;;;;;;;25.77;14.30;;;7.20;99.90;;;;;;5002367;28;20042;-75
2023/02/13 07:46:44;;;;;;;26.05;14.05;;;7.20;99.90;;;;;;4982568;28;20053;-75
2023/02/13 07:49:10;;;;;;;27.77;14.52;;;7.20;99.90;;;;;;4981503;28;20100;-74
2023/02/13 07:51:35;;;;;;;25.42;13.73;;;7.20;99.90;;;;;;4999576;28;20022;-73
2023/02/13 07:54:01;;;;;;;22.08;13.73;;;7.20;99.90;;;;;;4983911;28;20041;-74
2023/02/13 07:56:27;;;;;;;23.55;14.00;;;7.20;99.90;;;;;;4982103;28;20043;-73
2023/02/13 07:58:53;;;;;;;25.25;14.27;;;7.20;99.90;;;;;;4999614;28;20043;-74
2023/02/13 08:01:19;;;;;;;28.90;14.77;;;7.30;99.90;;;;;;4983086;28;20473;-74
2023/02/13 08:03:49;;;;;;;25.65;13.20;;;7.30;99.90;;;;;;4983874;28;20421;-74
2023/02/13 08:06:16;;;;;;;28.67;14.90;;;7.30;99.90;;;;;;4994900;28;20033;-74
2023/02/13 08:08:42;;;;;;;25.73;14.65;;;7.30;99.90;;;;;;4978451;28;20099;-74
2023/02/13 08:14:15;;;;;;;29.83;16.13;;;7.20;99.90;;;;;;4994630;28;20030;-74
2023/02/13 08:16:41;;;;;;;25.40;14.43;;;7.20;99.90;;;;;;4982191;28;20072;-76
2023/02/13 08:19:07;;;;;;;24.83;14.70;;;7.20;99.90;;;;;;4983420;28;20447;-73
2023/02/13 08:21:34;;;;;;;27.73;15.60;;;7.20;99.90;;;;;;4980054;28;20038;-72
2023/02/13 08:23:59;;;;;;;26.50;15.00;;;7.20;99.90;;;;;;4995556;28;20037;-73
2023/02/13 08:26:25;;;;;;;29.42;15.25;;;7.20;99.90;;;;;;5003331;28;20131;-75
2023/02/13 08:28:51;;;;;;;27.40;14.98;;;7.20;99.90;;;;;;5001289;28;20562;-74
2023/02/13 08:31:18;;;;;;;25.23;14.32;;;7.30;99.90;;;;;;4994881;28;20097;-73
2023/02/13 08:33:44;;;;;;;21.73;13.98;;;7.30;99.90;;;;;;4989566;28;20105;-73
2023/02/13 08:36:10;;;;;;;26.17;14.38;;;7.30;99.90;;;;;;4996277;28;20089;-74
2023/02/13 08:38:36;;;;;;;29.02;15.93;;;7.40;99.90;;;;;;4963307;28;20026;-74
2023/02/13 08:41:02;;;;;;;28.60;15.63;;;7.40;99.90;;;;;;4977950;28;20044;-75
2023/02/13 08:43:28;;;;;;;25.63;13.85;;;7.40;99.90;;;;;;4968000;28;20498;-76
2023/02/13 08:45:56;;;;;;;26.40;13.63;;;7.40;99.90;;;;;;4977783;28;20033;-75
2023/02/13 08:48:22;;;;;;;27.02;13.38;;;7.40;99.90;;;;;;4999736;28;20034;-75
2023/02/13 08:50:48;;;;;;;21.63;12.95;;;7.40;99.90;;;;;;4989116;28;20068;-75
2023/02/13 08:53:14;;;;;;;22.23;13.32;;;7.50;99.90;;;;;;4981024;28;20384;-73
2023/02/13 08:55:39;;;;;;;24.77;14.23;;;7.40;99.90;;;;;;4978951;28;20069;-74
2023/02/13 08:58:05;;;;;;;22.40;13.60;;;7.50;99.90;;;;;;4972573;28;20061;-74
2023/02/13 09:00:31;;;;;;;23.45;14.07;;;7.40;99.90;;;;;;4976363;28;20084;-75
2023/02/13 09:03:03;;;;;;;25.13;13.05;;;7.40;99.90;;;;;;4977923;28;20042;-74
2023/02/13 09:05:31;;;;;;;22.52;13.00;;;7.40;99.90;;;;;;4958955;28;20417;-72
2023/02/13 09:08:01;;;;;;;32.80;16.08;;;7.40;99.90;;;;;;4981070;28;20034;-74
2023/02/13 09:10:26;;;;;;;28.25;14.80;;;7.40;99.90;;;;;;4997096;28;20026;-74
2023/02/13 09:12:53;;;;;;;22.00;12.32;;;7.40;99.90;;;;;;4977337;28;20032;-72
2023/02/13 09:15:18;;;;;;;21.88;12.82;;;7.50;99.90;;;;;;4974445;28;20030;-74
2023/02/13 09:17:44;;;;;;;22.60;12.30;;;7.50;99.90;;;;;;4993011;28;20505;-74
2023/02/13 09:20:12;;;;;;;19.65;12.77;;;7.50;99.90;;;;;;4980534;28;20123;-75
2023/02/13 09:22:39;;;;;;;20.52;11.82;;;7.50;99.90;;;;;;4966841;28;20023;-75
2023/02/13 09:25:06;;;;;;;22.45;13.75;;;7.60;99.90;;;;;;4964832;28;20566;-75
2023/02/13 09:27:33;;;;;;;21.58;12.48;;;7.50;99.90;;;;;;4979612;28;20034;-74
2023/02/13 09:29:59;;;;;;;22.92;12.90;;;7.60;99.90;;;;;;4977166;28;20057;-73
2023/02/13 09:32:25;;;;;;;19.08;11.98;;;7.60;99.90;;;;;;4991234;28;20066;-76
2023/02/13 09:34:51;;;;;;;20.35;11.63;;;7.70;99.90;;;;;;4978490;28;20022;-75
2023/02/13 09:37:17;;;;;;;25.92;13.23;;;7.70;99.90;;;;;;4981550;28;20026;-75
2023/02/13 09:39:42;;;;;;;19.80;12.10;;;7.70;99.90;;;;;;5007888;28;20022;-75
2023/02/13 09:42:30;;;;;;;19.30;11.70;;;7.70;99.90;;;;;;4963321;28;20533;-75
2023/02/13 09:45:03;;;;;;;18.48;10.90;;;7.70;99.90;;;;;;4980311;28;20038;-75
2023/02/13 09:47:38;;;;;;;17.10;10.70;;;7.70;99.90;;;;;;4963556;28;20037;-75
2023/02/13 09:50:18;;;;;;;20.55;11.60;;;7.70;99.90;;;;;;4977358;28;20502;-75
2023/02/13 09:52:45;;;;;;;19.88;11.63;;;7.80;99.90;;;;;;4964466;28;20034;-76
2023/02/13 09:55:24;;;;;;;19.02;12.00;;;7.70;99.90;;;;;;5000142;28;20453;-76
2023/02/13 09:58:15;;;;;;;20.23;12.38;;;7.80;99.90;;;;;;4980831;28;20028;-76
2023/02/13 10:00:43;;;;;;;18.38;10.88;;;7.70;99.90;;;;;;4975526;28;20033;-75
2023/02/13 10:03:14;;;;;;;19.42;11.18;;;7.70;99.90;;;;;;4995074;28;20041;-75
2023/02/13 10:06:08;;;;;;;21.75;12.05;;;7.70;99.90;;;;;;4976286;28;20022;-76
2023/02/13 10:08:41;;;;;;;19.65;12.25;;;7.70;99.90;;;;;;4992493;28;20038;-74
2023/02/13 10:11:43;;;;;;;20.77;12.20;;;7.70;99.90;;;;;;4993533;28;20035;-75
2023/02/13 10:14:12;;;;;;;19.58;10.93;;;7.70;99.90;;;;;;4998771;28;20041;-75
2023/02/13 10:16:44;;;;;;;19.10;10.98;;;7.80;99.90;;;;;;4996837;28;20083;-75
2023/02/13 10:19:22;;;;;;;22.77;13.52;;;7.80;99.90;;;;;;4995970;28;20034;-75
2023/02/13 10:21:56;;;;;;;21.67;11.60;;;7.80;99.90;;;;;;4979300;28;20037;-75
2023/02/13 10:24:41;;;;;;;20.55;12.73;;;7.80;99.90;;;;;;4959177;28;20494;-76
2023/02/13 10:27:26;;;;;;;21.75;11.60;;;7.80;99.90;;;;;;4977532;28;20466;-76
2023/02/13 10:30:03;;;;;;;25.95;12.75;;;7.80;99.90;;;;;;4958125;28;20030;-74
2023/02/13 10:32:45;;;;;;;22.77;12.57;;;7.70;99.90;;;;;;4995764;28;20018;-75
2023/02/13 10:35:37;;;;;;;20.08;12.68;;;7.80;99.90;;;;;;4996470;28;20026;-74
2023/02/13 10:38:13;;;;;;;19.52;12.05;;;7.80;99.90;;;;;;4993638;28;20041;-74
2023/02/13 10:41:06;;;;;;;19.67;11.80;;;7.80;99.90;;;;;;4962837;28;20030;-74
2023/02/13 10:43:59;;;;;;;23.85;13.80;;;7.80;99.90;;;;;;4943673;28;20679;-74
2023/02/13 10:46:31;;;;;;;21.67;12.60;;;7.80;99.90;;;;;;4977914;28;20138;-74
2023/02/13 10:49:10;;;;;;;24.80;13.45;;;7.90;99.90;;;;;;4994780;28;20088;-73
2023/02/13 10:51:44;;;;;;;23.25;12.50;;;7.90;99.90;;;;;;4977155;28;20532;-73
2023/02/13 10:54:27;;;;;;;21.83;12.57;;;7.90;99.90;;;;;;4981132;28;20034;-73
2023/02/13 10:57:13;;;;;;;22.30;13.13;;;7.90;99.90;;;;;;4980459;28;20026;-74
2023/02/13 10:59:57;;;;;;;20.02;11.98;;;7.90;99.90;;;;;;4996369;28;20059;-73
2023/02/13 11:02:26;;;;;;;27.20;14.48;;;8.00;99.90;;;;;;4994925;28;20061;-74
2023/02/13 11:05:09;;;;;;;25.33;12.90;;;8.00;99.90;;;;;;4975915;28;20505;-72
2023/02/13 11:07:35;;;;;;;23.38;12.50;;;8.00;99.90;;;;;;4963118;28;20491;-73
2023/02/13 11:10:12;;;;;;;22.00;12.68;;;8.00;99.90;;;;;;4980373;28;20291;-74
2023/02/13 11:12:38;;;;;;;23.00;13.23;;;8.00;99.90;;;;;;4999637;28;20544;-74
2023/02/13 11:15:07;;;;;;;24.05;12.98;;;8.00;99.90;;;;;;4978651;28;20061;-75
2023/02/13 11:17:40;;;;;;;25.33;13.40;;;8.00;99.90;;;;;;4977953;28;20033;-74
2023/02/13 11:20:26;;;;;;;22.85;13.25;;;8.10;99.90;;;;;;4963776;28;20034;-74
2023/02/13 11:22:52;;;;;;;23.73;13.82;;;8.10;99.90;;;;;;4982878;28;20105;-75
2023/02/13 11:25:37;;;;;;;21.77;12.60;;;8.10;99.90;;;;;;4986731;28;20077;-75
2023/02/13 11:28:16;;;;;;;24.00;13.35;;;8.10;99.90;;;;;;5005358;28;20041;-74
2023/02/13 11:30:45;;;;;;;20.65;12.98;;;8.00;99.90;;;;;;4985645;28;20026;-74
2023/02/13 11:33:17;;;;;;;25.17;14.30;;;8.00;99.90;;;;;;4987251;28;20034;-74
2023/02/13 11:35:44;;;;;;;27.38;15.05;;;8.00;99.90;;;;;;4988267;28;20477;-77
2023/02/13 11:38:13;;;;;;;27.50;14.45;;;8.00;99.90;;;;;;4968630;28;20030;-75
2023/02/13 11:40:41;;;;;;;29.15;14.82;;;8.00;99.90;;;;;;5000299;28;20137;-79
2023/02/13 11:43:16;;;;;;;28.00;15.35;;;8.00;99.90;;;;;;4983735;28;20114;-75
2023/02/13 11:45:43;;;;;;;25.60;13.95;;;8.10;99.90;;;;;;4981180;28;20034;-78
2023/02/13 11:48:19;;;;;;;27.42;14.38;;;8.10;99.90;;;;;;5004255;28;20026;-75
2023/02/13 11:50:51;;;;;;;24.88;14.23;;;8.20;99.90;;;;;;4979321;28;20030;-75
2023/02/13 11:53:24;;;;;;;24.55;14.55;;;8.10;99.90;;;;;;4998188;28;20030;-74
2023/02/13 11:56:06;;;;;;;30.92;15.60;;;8.10;99.90;;;;;;5001794;28;20038;-75
2023/02/13 11:58:33;;;;;;;25.35;13.95;;;8.10;99.90;;;;;;4983424;28;20022;-75
2023/02/13 12:01:09;;;;;;;26.20;15.68;;;8.20;99.90;;;;;;4966970;28;20034;-74
2023/02/13 12:03:37;;;;;;;27.83;15.38;;;8.20;99.90;;;;;;4968608;28;20029;-75
2023/02/13 12:06:12;;;;;;;28.95;16.13;;;8.20;99.90;;;;;;4987862;28;20085;-75
2023/02/13 12:08:40;;;;;;;28.85;15.80;;;8.20;99.90;;;;;;4982847;28;20457;-76
2023/02/13 12:11:26;;;;;;;29.95;16.20;;;8.20;99.90;;;;;;5004169;28;20057;-75
2023/02/13 12:13:53;;;;;;;28.45;15.55;;;8.20;99.90;;;;;;4970675;28;20034;-75
2023/02/13 12:16:40;;;;;;;28.13;16.33;;;8.30;99.90;;;;;;5001448;28;20061;-76
2023/02/13 12:19:13;;;;;;;28.90;16.10;;;8.30;99.90;;;;;;5000596;28;20034;-75
2023/02/13 12:21:48;;;;;;;28.80;14.98;;;8.30;99.90;;;;;;5002260;28;20034;-74
2023/02/13 12:24:55;;;;;;;28.83;15.40;;;8.30;99.90;;;;;;5001503;28;20069;-73
2023/02/13 12:27:35;;;;;;;28.30;16.45;;;8.30;99.90;;;;;;4915864;29;20059;-75
2023/02/13 12:30:29;;;;;;;31.85;18.15;;;8.20;99.90;;;;;;4991955;28;20049;-76
2023/02/13 12:33:07;;;;;;;29.05;16.23;;;8.30;99.90;;;;;;4994164;28;20070;-75
2023/02/13 12:35:52;;;;;;;28.95;17.08;;;8.20;99.90;;;;;;5000102;28;20038;-76
2023/02/13 12:38:56;;;;;;;29.63;16.30;;;8.20;99.90;;;;;;4981717;28;20603;-76
2023/02/13 12:41:47;;;;;;;30.95;16.60;;;8.20;99.90;;;;;;4898613;28;20050;-75
2023/02/13 12:44:30;;;;;;;28.40;16.15;;;8.20;99.90;;;;;;4988092;28;20066;-74
2023/02/13 12:47:11;;;;;;;29.25;16.65;;;8.20;99.90;;;;;;5005440;28;20031;-76
2023/02/13 12:49:39;;;;;;;29.35;16.17;;;8.30;99.90;;;;;;4986888;28;20022;-75
2023/02/13 12:52:22;;;;;;;29.90;17.95;;;8.20;99.90;;;;;;4983652;28;20089;-76
2023/02/13 12:55:09;;;;;;;35.03;18.92;;;8.30;99.90;;;;;;5001843;28;20027;-76
2023/02/13 12:57:54;;;;;;;30.63;16.65;;;8.30;99.90;;;;;;4985605;28;20040;-77
2023/02/13 13:00:20;;;;;;;31.67;17.15;;;8.30;99.90;;;;;;4980092;28;20037;-75
2023/02/13 13:03:05;;;;;;;35.08;17.98;;;8.20;99.90;;;;;;4979806;28;20117;-76
2023/02/13 13:05:43;;;;;;;38.08;18.88;;;8.20;99.90;;;;;;4992810;28;20558;-75
2023/02/13 13:08:26;;;;;;;30.77;16.88;;;8.10;99.90;;;;;;4967968;28;20031;-75
2023/02/13 13:11:33;;;;;;;29.45;16.92;;;8.10;99.90;;;;;;4999434;28;20026;-75
2023/02/13 13:14:08;;;;;;;35.00;18.80;;;8.20;99.90;;;;;;4951659;28;20121;-75
2023/02/13 13:16:55;;;;;;;33.22;17.85;;;8.10;99.90;;;;;;4997631;28;20225;-75
2023/02/13 13:19:59;;;;;;;29.65;17.45;;;8.10;99.90;;;;;;4983848;28;20058;-75
2023/02/13 13:22:36;;;;;;;29.35;16.95;;;8.10;99.90;;;;;;5000226;28;20031;-75
2023/02/13 13:25:05;;;;;;;34.03;17.85;;;8.10;99.90;;;;;;4982648;28;20117;-75
2023/02/13 13:27:43;;;;;;;34.22;17.95;;;8.00;99.90;;;;;;4986105;28;20037;-76
2023/02/13 13:30:17;;;;;;;30.77;17.73;;;8.10;99.90;;;;;;4985113;28;20026;-75
2023/02/13 13:32:45;;;;;;;32.60;16.80;;;8.10;99.90;;;;;;4999164;28;20378;-75
2023/02/13 13:35:14;;;;;;;33.55;17.33;;;8.10;99.90;;;;;;4977856;28;20034;-75
2023/02/13 13:38:01;;;;;;;32.10;16.88;;;8.10;99.90;;;;;;4965142;28;20073;-75
2023/02/13 13:40:42;;;;;;;33.28;17.20;;;8.00;99.90;;;;;;4975036;28;20085;-75
2023/02/13 13:43:39;;;;;;;31.00;17.55;;;8.00;99.90;;;;;;4989324;28;20045;-75
2023/02/13 13:46:25;;;;;;;39.53;19.60;;;8.10;99.90;;;;;;4977684;28;20026;-75